Terminal Aerodrome Forecast
Issued by NWS Goodland, KS

Home | Current Version | Previous Version | Text Only | Print | Product List | Glossary On
Versions: 1 2 3 4 5 6 7 8 9 10 11 12 13 14 15 16 17 18 19 20
471
FTUS43 KGLD 162331
TAFGLD
TAF
KGLD 162331Z 1700/1724 35015KT P6SM SCT025 BKN045
     FM170600 31009KT P6SM FEW030 SCT070
     FM171400 28007KT P6SM FEW035 FEW200
     FM172000 25006KT P6SM SKC=

USA.gov is the U.S. government's official web portal to all federal, state and local government web resources and services.